createdAt,value
2018-03-11T00:00:47.976Z,978.19
2018-03-11T00:01:57.697Z,978.24
2018-03-11T00:03:06.616Z,978.24
2018-03-11T00:04:16.339Z,978.25
2018-03-11T00:05:26.331Z,978.25
2018-03-11T00:06:36.049Z,978.24
2018-03-11T00:07:46.088Z,978.22
2018-03-11T00:08:55.806Z,978.26
2018-03-11T00:10:05.261Z,978.24
2018-03-11T00:11:15.256Z,978.26
2018-03-11T00:12:25.297Z,978.26
2018-03-11T00:13:35.285Z,978.27
2018-03-11T00:14:45.275Z,978.18
2018-03-11T00:15:55.263Z,978.23
2018-03-11T00:17:04.998Z,978.19
2018-03-11T00:18:14.992Z,978.17
2018-03-11T00:19:24.981Z,978.18
2018-03-11T00:20:34.984Z,978.13
2018-03-11T00:21:44.966Z,978.21
2018-03-11T00:22:54.949Z,978.14
2018-03-11T00:24:04.403Z,978.17
2018-03-11T00:25:14.126Z,978.11
2018-03-11T00:26:24.115Z,978.12
2018-03-11T00:27:34.108Z,978.11
2018-03-11T00:28:44.104Z,978.14
2018-03-11T00:29:54.138Z,978.06
2018-03-11T00:31:03.328Z,978.12
2018-03-11T00:32:13.327Z,978.1
2018-03-11T00:33:23.315Z,978.1
2018-03-11T00:34:33.295Z,978.07
2018-03-11T00:35:43.383Z,978.06
2018-03-11T00:36:53.100Z,978.07
2018-03-11T00:38:02.819Z,978.05
2018-03-11T00:39:12.808Z,978.05
2018-03-11T00:40:22.799Z,978.1
2018-03-11T00:41:32.522Z,978.11
2018-03-11T00:42:42.505Z,978.1
2018-03-11T00:43:52.490Z,978.11
2018-03-11T00:45:02.226Z,978.04
2018-03-11T00:46:11.945Z,978.08
2018-03-11T00:47:21.944Z,978.08
2018-03-11T00:48:31.933Z,978.05
2018-03-11T00:49:41.925Z,978.06
2018-03-11T00:50:51.910Z,978.1
2018-03-11T00:52:01.359Z,978.1
2018-03-11T00:53:10.810Z,978.09
2018-03-11T00:54:20.800Z,978.07
2018-03-11T00:55:30.784Z,978.01
2018-03-11T00:56:40.235Z,977.99
2018-03-11T00:57:50.224Z,977.99
2018-03-11T00:59:00.219Z,978.02
2018-03-11T01:00:10.206Z,978.02
2018-03-11T01:01:20.194Z,977.99
2018-03-11T01:02:30.178Z,978.03
2018-03-11T01:03:40.173Z,978
2018-03-11T01:04:50.165Z,978.01
2018-03-11T01:06:00.147Z,977.99
2018-03-11T01:07:09.602Z,978.03
2018-03-11T01:08:19.324Z,978.02
2018-03-11T01:09:29.049Z,977.99
2018-03-11T01:10:39.037Z,977.98
2018-03-11T01:11:49.029Z,977.94
2018-03-11T01:12:58.746Z,977.88
2018-03-11T01:14:08.468Z,977.88
2018-03-11T01:15:18.456Z,977.91
2018-03-11T01:16:28.453Z,977.88
2018-03-11T01:17:37.656Z,977.88
2018-03-11T01:18:47.374Z,977.9
2018-03-11T01:19:57.366Z,977.88
2018-03-11T01:21:07.366Z,977.86
2018-03-11T01:22:17.090Z,977.83
2018-03-11T01:23:27.080Z,977.83
2018-03-11T01:24:36.531Z,977.82
2018-03-11T01:25:46.524Z,977.79
2018-03-11T01:26:56.512Z,977.81
2018-03-11T01:28:06.232Z,977.81
2018-03-11T01:29:15.958Z,977.83
2018-03-11T01:30:25.674Z,977.86
2018-03-11T01:31:35.396Z,977.87
2018-03-11T01:32:45.382Z,977.89
2018-03-11T01:33:55.371Z,977.87
2018-03-11T01:35:05.095Z,977.87
2018-03-11T01:36:15.083Z,977.87
2018-03-11T01:37:25.072Z,977.87
2018-03-11T01:38:34.799Z,977.86
2018-03-11T01:39:44.788Z,977.83
2018-03-11T01:40:54.501Z,977.82
2018-03-11T01:42:03.954Z,977.77
2018-03-11T01:43:13.729Z,977.8
2018-03-11T01:44:23.182Z,977.8
2018-03-11T01:45:32.902Z,977.76
2018-03-11T01:46:42.894Z,977.8
2018-03-11T01:47:52.885Z,977.78
2018-03-11T01:49:02.344Z,977.75
2018-03-11T01:50:12.066Z,977.79
2018-03-11T01:51:22.055Z,977.78
2018-03-11T01:52:32.037Z,977.78
2018-03-11T01:53:41.759Z,977.75
2018-03-11T01:54:51.474Z,977.79
2018-03-11T01:56:00.925Z,977.79
2018-03-11T01:57:10.917Z,977.78
2018-03-11T01:58:21.010Z,977.77
2018-03-11T01:59:30.807Z,977.75
2018-03-11T02:00:40.792Z,977.71
2018-03-11T02:01:50.791Z,977.74
2018-03-11T02:03:00.781Z,977.76
2018-03-11T02:04:10.584Z,977.74
2018-03-11T02:05:20.310Z,977.69
2018-03-11T02:06:29.500Z,977.73
2018-03-11T02:07:39.498Z,977.72
2018-03-11T02:08:49.501Z,977.72
2018-03-11T02:09:59.494Z,977.71
2018-03-11T02:11:09.211Z,977.75
2018-03-11T02:12:18.933Z,977.66
2018-03-11T02:13:28.925Z,977.67
2018-03-11T02:14:38.378Z,977.6
2018-03-11T02:15:47.829Z,977.58
2018-03-11T02:16:57.812Z,977.59
2018-03-11T02:18:07.333Z,977.61
2018-03-11T02:19:16.786Z,977.57
2018-03-11T02:20:26.771Z,977.58
2018-03-11T02:21:36.496Z,977.59
2018-03-11T02:22:46.491Z,977.62
2018-03-11T02:23:56.478Z,977.62
2018-03-11T02:25:06.469Z,977.67
2018-03-11T02:26:16.458Z,977.65
2018-03-11T02:27:26.188Z,977.65
2018-03-11T02:28:36.226Z,977.69
2018-03-11T02:29:46.225Z,977.71
2018-03-11T02:30:56.217Z,977.68
2018-03-11T02:32:05.942Z,977.71
2018-03-11T02:33:15.131Z,977.71
2018-03-11T02:34:25.141Z,977.73
2018-03-11T02:35:34.600Z,977.68
2018-03-11T02:36:44.594Z,977.66
2018-03-11T02:37:54.590Z,977.61
2018-03-11T02:39:04.620Z,977.56
2018-03-11T02:40:14.096Z,977.55
2018-03-11T02:41:24.088Z,977.59
2018-03-11T02:42:34.094Z,977.52
2018-03-11T02:43:43.823Z,977.55
2018-03-11T02:44:53.862Z,977.55
2018-03-11T02:46:03.868Z,977.61
2018-03-11T02:47:13.605Z,977.62
2018-03-11T02:48:23.601Z,977.6
2018-03-11T02:49:33.604Z,977.62
2018-03-11T02:50:42.789Z,977.6
2018-03-11T02:51:52.841Z,977.57
2018-03-11T02:53:02.573Z,977.54
2018-03-11T02:54:12.030Z,977.54
2018-03-11T02:55:22.019Z,977.56
2018-03-11T02:56:32.012Z,977.53
2018-03-11T02:57:42.013Z,977.54
2018-03-11T02:58:51.997Z,977.5
2018-03-11T03:00:01.458Z,977.52
2018-03-11T03:01:11.456Z,977.55
2018-03-11T03:02:24.798Z,977.54
2018-03-11T03:03:34.520Z,977.58
2018-03-11T03:04:44.515Z,977.57
2018-03-11T03:05:54.510Z,977.54
2018-03-11T03:07:03.969Z,977.55
2018-03-11T03:08:13.963Z,977.5
2018-03-11T03:09:23.953Z,977.52
2018-03-11T03:10:33.668Z,977.52
2018-03-11T03:11:43.390Z,977.57
2018-03-11T03:12:53.392Z,977.53
2018-03-11T03:14:02.863Z,977.49
2018-03-11T03:15:12.584Z,977.45
2018-03-11T03:16:22.619Z,977.48
2018-03-11T03:17:32.604Z,977.5
2018-03-11T03:18:42.590Z,977.51
2018-03-11T03:19:52.418Z,977.47
2018-03-11T03:21:02.412Z,977.45
2018-03-11T03:22:12.401Z,977.45
2018-03-11T03:23:22.416Z,977.43
2018-03-11T03:24:31.612Z,977.42
2018-03-11T03:25:41.704Z,977.44
2018-03-11T03:26:51.424Z,977.43
2018-03-11T03:28:01.410Z,977.43
2018-03-11T03:29:11.401Z,977.42
2018-03-11T03:30:21.397Z,977.41
2018-03-11T03:31:30.915Z,977.43
2018-03-11T03:32:40.931Z,977.47
2018-03-11T03:33:50.650Z,977.46
2018-03-11T03:35:00.641Z,977.52
2018-03-11T03:36:10.631Z,977.53
2018-03-11T03:37:20.968Z,977.51
2018-03-11T03:38:31.051Z,977.54
2018-03-11T03:39:40.251Z,977.5
2018-03-11T03:40:50.246Z,977.51
2018-03-11T03:41:59.431Z,977.5
2018-03-11T03:43:08.894Z,977.43
2018-03-11T03:44:18.625Z,977.37
2018-03-11T03:45:28.354Z,977.4
2018-03-11T03:46:38.085Z,977.39
2018-03-11T03:47:47.806Z,977.39
2018-03-11T03:48:57.797Z,977.37
2018-03-11T03:50:07.522Z,977.44
2018-03-11T03:51:17.513Z,977.41
2018-03-11T03:52:26.979Z,977.4
2018-03-11T03:53:36.751Z,977.41
2018-03-11T03:54:46.473Z,977.38
2018-03-11T03:55:56.198Z,977.38
2018-03-11T03:57:05.921Z,977.39
2018-03-11T03:58:15.919Z,977.41
2018-03-11T03:59:25.371Z,977.37
2018-03-11T04:04:32.113Z,977.39
2018-03-11T04:05:42.105Z,977.37
2018-03-11T04:06:52.099Z,977.34
2018-03-11T04:08:01.560Z,977.33
2018-03-11T04:09:11.280Z,977.31
2018-03-11T04:10:21.265Z,977.3
2018-03-11T04:11:30.987Z,977.3
2018-03-11T04:12:40.981Z,977.29
2018-03-11T04:13:50.969Z,977.25
2018-03-11T04:15:02.430Z,977.3
2018-03-11T04:16:12.156Z,977.27
2018-03-11T04:17:22.142Z,977.29
2018-03-11T04:18:31.328Z,977.28
2018-03-11T04:19:41.050Z,977.3
2018-03-11T04:20:50.829Z,977.32
2018-03-11T04:22:00.022Z,977.36
2018-03-11T04:23:09.744Z,977.33
2018-03-11T04:24:19.750Z,977.34
2018-03-11T04:25:28.940Z,977.35
2018-03-11T04:26:38.666Z,977.37
2018-03-11T04:27:48.392Z,977.4
2018-03-11T04:28:58.166Z,977.4
2018-03-11T04:30:08.173Z,977.37
2018-03-11T04:31:17.629Z,977.39
2018-03-11T04:32:27.449Z,977.41
2018-03-11T04:33:37.438Z,977.36
2018-03-11T04:34:47.164Z,977.4
2018-03-11T04:35:57.151Z,977.4
2018-03-11T04:37:06.872Z,977.4
2018-03-11T04:38:16.871Z,977.39
2018-03-11T04:39:26.934Z,977.41
2018-03-11T04:40:36.658Z,977.43
2018-03-11T04:41:46.655Z,977.43
2018-03-11T04:42:56.659Z,977.38
2018-03-11T04:44:06.495Z,977.38
2018-03-11T04:45:16.218Z,977.37
2018-03-11T04:46:25.943Z,977.33
2018-03-11T04:47:35.131Z,977.32
2018-03-11T04:48:44.321Z,977.31
2018-03-11T04:49:54.319Z,977.34
2018-03-11T04:51:04.339Z,977.34
2018-03-11T04:52:13.801Z,977.34
2018-03-11T04:53:23.525Z,977.34
2018-03-11T04:54:33.249Z,977.34
2018-03-11T04:55:42.985Z,977.33
2018-03-11T04:56:52.970Z,977.32
2018-03-11T04:58:02.961Z,977.32
2018-03-11T04:59:12.414Z,977.33
2018-03-11T05:00:22.132Z,977.31
2018-03-11T05:01:32.129Z,977.32
2018-03-11T05:02:41.848Z,977.31
2018-03-11T05:03:51.838Z,977.29
2018-03-11T05:05:01.829Z,977.32
2018-03-11T05:06:11.854Z,977.33
2018-03-11T05:07:21.843Z,977.29
2018-03-11T05:08:31.294Z,977.3
2018-03-11T05:09:41.017Z,977.3
2018-03-11T05:10:50.474Z,977.27
2018-03-11T05:12:00.201Z,977.31
2018-03-11T05:13:09.707Z,977.26
2018-03-11T05:14:19.437Z,977.26
2018-03-11T05:15:28.886Z,977.23
2018-03-11T05:16:38.870Z,977.21
2018-03-11T05:17:48.595Z,977.26
2018-03-11T05:18:58.592Z,977.32
2018-03-11T05:20:08.583Z,977.33
2018-03-11T05:21:18.577Z,977.33
2018-03-11T05:22:28.570Z,977.34
2018-03-11T05:23:38.297Z,977.33
2018-03-11T05:24:48.014Z,977.3
2018-03-11T05:25:58.002Z,977.26
2018-03-11T05:27:07.730Z,977.27
2018-03-11T05:28:17.462Z,977.17
2018-03-11T05:29:27.480Z,977.18
2018-03-11T05:30:37.206Z,977.22
2018-03-11T05:31:46.658Z,977.16
2018-03-11T05:32:56.652Z,977.22
2018-03-11T05:34:06.653Z,977.19
2018-03-11T05:35:16.641Z,977.13
2018-03-11T05:36:26.634Z,977.13
2018-03-11T05:37:36.618Z,977.1
2018-03-11T05:38:46.346Z,977.13
2018-03-11T05:39:56.340Z,977.11
2018-03-11T05:41:06.078Z,977.14
2018-03-11T05:42:15.812Z,977.18
2018-03-11T05:43:25.809Z,977.19
2018-03-11T05:44:35.805Z,977.19
2018-03-11T05:45:45.797Z,977.17
2018-03-11T05:46:55.782Z,977.2
2018-03-11T05:48:05.518Z,977.25
2018-03-11T05:49:14.984Z,977.26
2018-03-11T05:50:24.970Z,977.26
2018-03-11T05:51:34.694Z,977.27
2018-03-11T05:52:44.691Z,977.23
2018-03-11T05:53:54.699Z,977.21
2018-03-11T05:55:04.736Z,977.27
2018-03-11T05:56:14.187Z,977.25
2018-03-11T05:57:23.908Z,977.26
2018-03-11T05:58:33.905Z,977.22
2018-03-11T05:59:43.626Z,977.22
2018-03-11T06:00:53.347Z,977.2
2018-03-11T06:02:03.095Z,977.14
2018-03-11T06:03:12.816Z,977.18
2018-03-11T06:04:22.805Z,977.18
2018-03-11T06:05:32.556Z,977.21
2018-03-11T06:06:42.280Z,977.2
2018-03-11T06:07:51.729Z,977.2
2018-03-11T06:09:01.452Z,977.18
2018-03-11T06:10:11.440Z,977.14
2018-03-11T06:11:21.427Z,977.12
2018-03-11T06:12:31.415Z,977.13
2018-03-11T06:13:41.401Z,977.15
2018-03-11T06:14:51.391Z,977.17
2018-03-11T06:16:01.385Z,977.12
2018-03-11T06:17:11.203Z,977.15
2018-03-11T06:18:21.195Z,977.18
2018-03-11T06:19:30.381Z,977.17
2018-03-11T06:20:40.104Z,977.16
2018-03-11T06:21:49.829Z,977.17
2018-03-11T06:22:59.286Z,977.17
2018-03-11T06:24:08.744Z,977.14
2018-03-11T06:25:18.735Z,977.14
2018-03-11T06:26:28.767Z,977.2
2018-03-11T06:27:38.892Z,977.22
2018-03-11T06:28:48.086Z,977.25
2018-03-11T06:29:58.075Z,977.27
2018-03-11T06:31:07.528Z,977.3
2018-03-11T06:32:17.246Z,977.36
2018-03-11T06:33:27.269Z,977.35
2018-03-11T06:34:36.990Z,977.38
2018-03-11T06:35:46.976Z,977.37
2018-03-11T06:36:56.963Z,977.35
2018-03-11T06:38:06.955Z,977.33
2018-03-11T06:39:16.956Z,977.31
2018-03-11T06:40:27.046Z,977.33
2018-03-11T06:41:36.773Z,977.34
2018-03-11T06:42:46.766Z,977.4
2018-03-11T06:43:56.754Z,977.41
2018-03-11T06:45:06.206Z,977.41
2018-03-11T06:46:15.396Z,977.44
2018-03-11T06:47:25.384Z,977.4
2018-03-11T06:48:35.372Z,977.48
2018-03-11T06:49:45.364Z,977.55
2018-03-11T06:50:55.354Z,977.58
2018-03-11T06:52:05.403Z,977.57
2018-03-11T06:53:15.458Z,977.61
2018-03-11T06:54:25.457Z,977.55
2018-03-11T06:55:34.915Z,977.54
2018-03-11T06:56:44.901Z,977.54
2018-03-11T06:57:54.627Z,977.49
2018-03-11T06:59:04.078Z,977.45
2018-03-11T07:00:13.808Z,977.46
2018-03-11T07:01:23.270Z,977.49
2018-03-11T07:02:33.260Z,977.44
2018-03-11T07:03:43.259Z,977.42
2018-03-11T07:04:52.477Z,977.44
2018-03-11T07:06:02.478Z,977.41
2018-03-11T07:07:11.935Z,977.44
2018-03-11T07:08:21.396Z,977.44
2018-03-11T07:09:31.387Z,977.42
2018-03-11T07:10:41.114Z,977.4
2018-03-11T07:11:50.571Z,977.38
2018-03-11T07:13:00.300Z,977.38
2018-03-11T07:14:10.296Z,977.41
2018-03-11T07:15:20.288Z,977.35
2018-03-11T07:16:30.012Z,977.35
2018-03-11T07:17:40.009Z,977.3
2018-03-11T07:18:50.000Z,977.34
2018-03-11T07:20:00.025Z,977.3
2018-03-11T07:21:10.025Z,977.38
2018-03-11T07:22:20.020Z,977.33
2018-03-11T07:23:30.017Z,977.33
2018-03-11T07:24:40.013Z,977.34
2018-03-11T07:25:49.732Z,977.34
2018-03-11T07:26:59.187Z,977.34
2018-03-11T07:28:08.112Z,977.36
2018-03-11T07:29:18.104Z,977.42
2018-03-11T07:30:27.827Z,977.48
2018-03-11T07:31:37.814Z,977.45
2018-03-11T07:32:47.804Z,977.44
2018-03-11T07:33:57.799Z,977.39
2018-03-11T07:35:07.530Z,977.45
2018-03-11T07:36:16.991Z,977.44
2018-03-11T07:37:26.992Z,977.47
2018-03-11T07:38:36.983Z,977.48
2018-03-11T07:39:46.971Z,977.5
2018-03-11T07:40:56.967Z,977.5
2018-03-11T07:42:06.734Z,977.48
2018-03-11T07:43:16.735Z,977.45
2018-03-11T07:44:26.458Z,977.42
2018-03-11T07:45:36.190Z,977.41
2018-03-11T07:46:46.192Z,977.41
2018-03-11T07:47:55.910Z,977.4
2018-03-11T07:49:05.692Z,977.43
2018-03-11T07:50:15.177Z,977.42
2018-03-11T07:51:25.168Z,977.45
2018-03-11T07:52:34.893Z,977.44
2018-03-11T07:53:44.878Z,977.48
2018-03-11T07:54:54.864Z,977.49
2018-03-11T07:56:04.859Z,977.46
2018-03-11T07:57:14.855Z,977.47
2018-03-11T07:58:24.845Z,977.42
2018-03-11T07:59:34.850Z,977.36
2018-03-11T08:00:44.573Z,977.37
2018-03-11T08:01:54.610Z,977.35
2018-03-11T08:03:04.595Z,977.38
2018-03-11T08:04:14.048Z,977.38
2018-03-11T08:05:22.977Z,977.36
2018-03-11T08:06:32.702Z,977.34
2018-03-11T08:07:42.429Z,977.34
2018-03-11T08:08:51.883Z,977.37
2018-03-11T08:10:01.367Z,977.34
2018-03-11T08:11:10.828Z,977.37
2018-03-11T08:12:20.555Z,977.42
2018-03-11T08:13:29.748Z,977.41
2018-03-11T08:14:39.740Z,977.48
2018-03-11T08:15:49.743Z,977.48
2018-03-11T08:16:59.776Z,977.48
2018-03-11T08:18:09.793Z,977.43
2018-03-11T08:19:19.795Z,977.41
2018-03-11T08:20:29.789Z,977.4
2018-03-11T08:21:39.784Z,977.44
2018-03-11T08:22:49.245Z,977.42
2018-03-11T08:23:58.443Z,977.4
2018-03-11T08:25:08.480Z,977.42
2018-03-11T08:26:18.210Z,977.42
2018-03-11T08:27:28.220Z,977.42
2018-03-11T08:28:38.212Z,977.43
2018-03-11T08:29:47.404Z,977.43
2018-03-11T08:30:57.400Z,977.46
2018-03-11T08:32:07.401Z,977.45
2018-03-11T08:33:17.399Z,977.46
2018-03-11T08:34:27.131Z,977.49
2018-03-11T08:35:37.125Z,977.51
2018-03-11T08:36:47.115Z,977.5
2018-03-11T08:37:56.847Z,977.52
2018-03-11T08:39:06.844Z,977.48
2018-03-11T08:40:16.303Z,977.52
2018-03-11T08:41:26.300Z,977.46
2018-03-11T08:42:36.028Z,977.49
2018-03-11T08:43:46.033Z,977.5
2018-03-11T08:44:55.765Z,977.5
2018-03-11T08:46:05.013Z,977.54
2018-03-11T08:47:15.002Z,977.5
2018-03-11T08:48:25.058Z,977.46
2018-03-11T08:49:35.070Z,977.51
2018-03-11T08:50:45.076Z,977.48
2018-03-11T08:51:55.061Z,977.49
2018-03-11T08:53:04.783Z,977.47
2018-03-11T08:54:13.979Z,977.51
2018-03-11T08:55:23.717Z,977.53
2018-03-11T08:56:33.451Z,977.57
2018-03-11T08:57:43.495Z,977.57
2018-03-11T08:58:52.958Z,977.59
2018-03-11T09:00:03.305Z,977.6
2018-03-11T09:01:12.796Z,977.6
2018-03-11T09:02:22.795Z,977.59
2018-03-11T09:03:32.788Z,977.56
2018-03-11T09:04:42.787Z,977.56
2018-03-11T09:05:52.786Z,977.59
2018-03-11T09:07:02.783Z,977.61
2018-03-11T09:08:12.782Z,977.62
2018-03-11T09:09:22.778Z,977.62
2018-03-11T09:10:32.547Z,977.56
2018-03-11T09:11:42.493Z,977.57
2018-03-11T09:12:52.495Z,977.54
2018-03-11T09:14:02.485Z,977.54
2018-03-11T09:15:12.491Z,977.55
2018-03-11T09:16:22.215Z,977.52
2018-03-11T09:17:31.512Z,977.51
2018-03-11T09:18:41.296Z,977.5
2018-03-11T09:19:50.761Z,977.49
2018-03-11T09:21:00.489Z,977.49
2018-03-11T09:22:09.996Z,977.48
2018-03-11T09:23:20.002Z,977.51
2018-03-11T09:24:29.731Z,977.54
2018-03-11T09:25:39.728Z,977.49
2018-03-11T09:26:49.725Z,977.5
2018-03-11T09:27:59.722Z,977.51
2018-03-11T09:29:09.187Z,977.49
2018-03-11T09:30:19.227Z,977.48
2018-03-11T09:31:29.235Z,977.55
2018-03-11T09:32:39.240Z,977.54
2018-03-11T09:33:48.969Z,977.56
2018-03-11T09:34:58.966Z,977.52
2018-03-11T09:36:08.967Z,977.51
2018-03-11T09:37:18.967Z,977.46
2018-03-11T09:38:28.966Z,977.48
2018-03-11T09:39:38.960Z,977.54
2018-03-11T09:40:48.957Z,977.55
2018-03-11T09:41:58.152Z,977.5
2018-03-11T09:43:07.616Z,977.55
2018-03-11T09:44:17.354Z,977.55
2018-03-11T09:45:26.819Z,977.55
2018-03-11T09:46:35.747Z,977.56
2018-03-11T09:47:45.747Z,977.57
2018-03-11T09:48:55.747Z,977.57
2018-03-11T09:50:05.744Z,977.55
2018-03-11T09:51:15.741Z,977.57
2018-03-11T09:52:25.469Z,977.55
2018-03-11T09:53:34.993Z,977.57
2018-03-11T09:54:44.725Z,977.55
2018-03-11T09:55:54.730Z,977.5
2018-03-11T09:57:04.475Z,977.52
2018-03-11T09:58:13.941Z,977.48
2018-03-11T09:59:23.935Z,977.5
2018-03-11T10:00:33.400Z,977.48
2018-03-11T10:01:43.397Z,977.47
2018-03-11T10:02:53.404Z,977.46
2018-03-11T10:04:03.558Z,977.46
2018-03-11T10:05:13.291Z,977.4
2018-03-11T10:06:22.223Z,977.43
2018-03-11T10:07:32.284Z,977.38
2018-03-11T10:08:41.759Z,977.46
2018-03-11T10:09:51.232Z,977.43
2018-03-11T10:11:01.229Z,977.4
2018-03-11T10:12:11.237Z,977.41
2018-03-11T10:13:20.699Z,977.44
2018-03-11T10:14:30.531Z,977.42
2018-03-11T10:15:40.269Z,977.41
2018-03-11T10:16:50.266Z,977.38
2018-03-11T10:18:00.263Z,977.4
2018-03-11T10:19:09.990Z,977.39
2018-03-11T10:20:19.732Z,977.41
2018-03-11T10:21:29.731Z,977.37
2018-03-11T10:22:39.727Z,977.39
2018-03-11T10:23:49.195Z,977.36
2018-03-11T10:24:59.193Z,977.39
2018-03-11T10:26:08.659Z,977.34
2018-03-11T10:27:18.394Z,977.34
2018-03-11T10:28:28.405Z,977.37
2018-03-11T10:29:38.142Z,977.39
2018-03-11T10:30:48.156Z,977.36
2018-03-11T10:31:57.892Z,977.4
2018-03-11T10:33:07.901Z,977.36
2018-03-11T10:34:17.641Z,977.37
2018-03-11T10:35:27.370Z,977.4
2018-03-11T10:36:37.106Z,977.41
2018-03-11T10:37:46.607Z,977.36
2018-03-11T10:38:56.679Z,977.41
2018-03-11T10:40:06.414Z,977.41
2018-03-11T10:41:16.152Z,977.41
2018-03-11T10:42:26.149Z,977.44
2018-03-11T10:43:35.879Z,977.41
2018-03-11T10:44:45.608Z,977.4
2018-03-11T10:45:55.333Z,977.39
2018-03-11T10:47:04.798Z,977.38
2018-03-11T10:48:14.536Z,977.38
2018-03-11T10:49:24.533Z,977.42
2018-03-11T10:50:34.266Z,977.37
2018-03-11T10:51:44.089Z,977.37
2018-03-11T10:52:54.094Z,977.37
2018-03-11T10:54:03.827Z,977.34
2018-03-11T10:55:13.561Z,977.35
2018-03-11T10:56:23.557Z,977.38
2018-03-11T10:57:33.284Z,977.34
2018-03-11T10:58:43.017Z,977.33
2018-03-11T10:59:52.746Z,977.35
2018-03-11T11:01:02.743Z,977.34
2018-03-11T11:02:11.994Z,977.34
2018-03-11T11:03:22.079Z,977.34
2018-03-11T11:04:32.071Z,977.33
2018-03-11T11:05:42.065Z,977.33
2018-03-11T11:06:52.064Z,977.34
2018-03-11T11:08:02.059Z,977.32
2018-03-11T11:09:12.057Z,977.37
2018-03-11T11:10:21.247Z,977.4
2018-03-11T11:11:31.233Z,977.36
2018-03-11T11:12:40.969Z,977.4
2018-03-11T11:13:50.165Z,977.37
2018-03-11T11:14:59.897Z,977.33
2018-03-11T11:16:09.628Z,977.32
2018-03-11T11:17:19.626Z,977.34
2018-03-11T11:18:29.349Z,977.3
2018-03-11T11:19:39.342Z,977.26
2018-03-11T11:20:49.341Z,977.31
2018-03-11T11:21:59.344Z,977.27
2018-03-11T11:23:09.340Z,977.28
2018-03-11T11:24:19.335Z,977.33
2018-03-11T11:25:29.337Z,977.32
2018-03-11T11:26:39.499Z,977.3
2018-03-11T11:27:49.236Z,977.33
2018-03-11T11:28:59.234Z,977.28
2018-03-11T11:30:09.235Z,977.27
2018-03-11T11:31:18.969Z,977.23
2018-03-11T11:32:28.430Z,977.18
2018-03-11T11:33:38.437Z,977.16
2018-03-11T11:34:48.433Z,977.2
2018-03-11T11:35:58.428Z,977.22
2018-03-11T11:37:08.205Z,977.18
2018-03-11T11:38:18.200Z,977.17
2018-03-11T11:39:28.204Z,977.16
2018-03-11T11:40:37.929Z,977.13
2018-03-11T11:41:47.665Z,977.09
2018-03-11T11:42:57.494Z,977.07
2018-03-11T11:44:07.524Z,977.08
2018-03-11T11:45:17.256Z,977.09
2018-03-11T11:46:26.985Z,977.03
2018-03-11T11:47:36.992Z,977.03
2018-03-11T11:48:46.487Z,977.02
2018-03-11T11:49:56.769Z,976.99
2018-03-11T11:51:06.824Z,976.99
2018-03-11T11:52:16.555Z,976.96
2018-03-11T11:53:26.289Z,976.96
2018-03-11T11:54:36.293Z,976.96
2018-03-11T11:55:46.073Z,977
2018-03-11T11:56:55.801Z,976.98
2018-03-11T11:58:05.820Z,976.99
2018-03-11T11:59:14.863Z,976.97
2018-03-11T12:00:24.168Z,977.02
2018-03-11T12:01:33.898Z,976.96
2018-03-11T12:02:43.095Z,976.99
2018-03-11T12:03:52.827Z,976.94
2018-03-11T12:05:02.830Z,976.98
2018-03-11T12:06:12.610Z,976.95
2018-03-11T12:07:22.610Z,976.94
2018-03-11T12:08:32.337Z,976.92
2018-03-11T12:09:42.338Z,976.9
2018-03-11T12:10:52.075Z,976.89
2018-03-11T12:12:02.076Z,976.84
2018-03-11T12:13:11.919Z,976.83
2018-03-11T12:14:21.915Z,976.83
2018-03-11T12:15:31.649Z,976.84
2018-03-11T12:16:41.378Z,976.85
2018-03-11T12:17:50.843Z,976.83
2018-03-11T12:19:00.581Z,976.86
2018-03-11T12:20:10.577Z,976.83
2018-03-11T12:21:20.037Z,976.83
2018-03-11T12:22:30.043Z,976.83
2018-03-11T12:23:39.854Z,976.81
2018-03-11T12:24:49.855Z,976.79
2018-03-11T12:25:59.317Z,976.78
2018-03-11T12:27:08.514Z,976.78
2018-03-11T12:28:18.505Z,976.8
2018-03-11T12:29:28.234Z,976.79
2018-03-11T12:30:38.236Z,976.8
2018-03-11T12:31:47.967Z,976.77
2018-03-11T12:32:57.702Z,976.82
2018-03-11T12:34:07.172Z,976.81
2018-03-11T12:35:17.192Z,976.81
2018-03-11T12:36:27.184Z,976.8
2018-03-11T12:37:36.912Z,976.86
2018-03-11T12:38:46.382Z,976.82
2018-03-11T12:39:56.117Z,976.77
2018-03-11T12:41:05.849Z,976.82
2018-03-11T12:42:15.919Z,976.77
2018-03-11T12:43:25.917Z,976.75
2018-03-11T12:44:35.654Z,976.75
2018-03-11T12:45:45.399Z,976.74
2018-03-11T12:46:55.394Z,976.75
2018-03-11T12:48:05.162Z,976.76
2018-03-11T12:49:14.628Z,976.76
2018-03-11T12:50:24.356Z,976.79
2018-03-11T12:51:34.082Z,976.71
2018-03-11T12:52:43.814Z,976.71
2018-03-11T12:53:53.540Z,976.75
2018-03-11T12:55:03.270Z,976.75
2018-03-11T12:56:12.734Z,976.75
2018-03-11T12:57:22.467Z,976.74
2018-03-11T12:58:32.461Z,976.71
2018-03-11T12:59:42.183Z,976.75
2018-03-11T13:00:52.181Z,976.72
2018-03-11T13:02:01.642Z,976.71
2018-03-11T13:03:11.104Z,976.71
2018-03-11T13:04:21.101Z,976.72
2018-03-11T13:05:30.032Z,976.72
2018-03-11T13:06:40.037Z,976.67
2018-03-11T13:07:49.774Z,976.7
2018-03-11T13:08:59.509Z,976.72
2018-03-11T13:10:09.238Z,976.67
2018-03-11T13:11:18.968Z,976.69
2018-03-11T13:12:28.445Z,976.69
2018-03-11T13:13:38.450Z,976.68
2018-03-11T13:14:48.185Z,976.67
2018-03-11T13:15:58.178Z,976.65
2018-03-11T13:17:07.910Z,976.61
2018-03-11T13:18:17.911Z,976.61
2018-03-11T13:19:27.955Z,976.64
2018-03-11T13:20:38.105Z,976.6
2018-03-11T13:21:47.843Z,976.62
2018-03-11T13:22:57.303Z,976.66
2018-03-11T13:24:07.234Z,976.66
2018-03-11T13:25:17.242Z,976.66
2018-03-11T13:26:26.711Z,976.64
2018-03-11T13:27:36.440Z,976.59
2018-03-11T13:28:46.434Z,976.6
2018-03-11T13:29:56.432Z,976.56
2018-03-11T13:31:06.249Z,976.58
2018-03-11T13:32:16.268Z,976.55
2018-03-11T13:33:25.992Z,976.53
2018-03-11T13:34:35.726Z,976.53
2018-03-11T13:35:45.192Z,976.54
2018-03-11T13:36:55.188Z,976.51
2018-03-11T13:38:05.185Z,976.53
2018-03-11T13:39:14.712Z,976.55
2018-03-11T13:40:24.713Z,976.55
2018-03-11T13:41:34.451Z,976.54
2018-03-11T13:42:44.447Z,976.53
2018-03-11T13:43:54.443Z,976.5
2018-03-11T13:45:04.174Z,976.52
2018-03-11T13:46:14.173Z,976.52
2018-03-11T13:47:23.899Z,976.47
2018-03-11T13:48:33.634Z,976.44
2018-03-11T13:49:43.099Z,976.44
2018-03-11T13:50:52.834Z,976.4
2018-03-11T13:52:02.833Z,976.37
2018-03-11T13:53:12.300Z,976.43
2018-03-11T13:54:22.295Z,976.38
2018-03-11T13:55:31.756Z,976.38
2018-03-11T13:56:41.566Z,976.33
2018-03-11T13:57:51.296Z,976.33
2018-03-11T13:59:01.287Z,976.3
2018-03-11T14:00:11.302Z,976.28
2018-03-11T14:01:21.308Z,976.33
2018-03-11T14:02:31.033Z,976.34
2018-03-11T14:03:41.043Z,976.28
2018-03-11T14:04:50.516Z,976.26
2018-03-11T14:06:00.532Z,976.26
2018-03-11T14:07:10.358Z,976.21
2018-03-11T14:08:20.357Z,976.15
2018-03-11T14:09:29.818Z,976.14
2018-03-11T14:10:39.552Z,976.13
2018-03-11T14:11:49.549Z,976.1
2018-03-11T14:12:59.013Z,976.11
2018-03-11T14:14:09.064Z,976.1
2018-03-11T14:15:18.530Z,976.06
2018-03-11T14:16:28.272Z,976.08
2018-03-11T14:17:38.271Z,976.04
2018-03-11T14:18:48.320Z,976.04
2018-03-11T14:19:58.518Z,976.02
2018-03-11T14:21:08.243Z,975.94
2018-03-11T14:22:18.240Z,975.96
2018-03-11T14:23:28.006Z,975.95
2018-03-11T14:24:38.006Z,975.94
2018-03-11T14:25:47.736Z,975.95
2018-03-11T14:26:57.483Z,975.98
2018-03-11T14:28:06.952Z,975.94
2018-03-11T14:29:16.422Z,975.93
2018-03-11T14:30:26.418Z,975.9
2018-03-11T14:31:36.141Z,975.9
2018-03-11T14:32:45.337Z,975.91
2018-03-11T14:33:55.064Z,975.91
2018-03-11T14:35:04.797Z,975.95
2018-03-11T14:36:14.799Z,975.91
2018-03-11T14:37:24.524Z,975.92
2018-03-11T14:38:33.985Z,975.92